sensor_id;sensor_type;location;lat;lon;timestamp;P1;durP1;ratioP1;P2;durP2;ratioP2
21392;SDS011;10857;52.228;21.026;2023-09-08T00:00:02;15.32;;;8.75;;
21392;SDS011;10857;52.228;21.026;2023-09-08T00:02:31;14.93;;;8.75;;
21392;SDS011;10857;52.228;21.026;2023-09-08T00:05:01;13.45;;;8.80;;
21392;SDS011;10857;52.228;21.026;2023-09-08T00:07:32;15.55;;;8.65;;
21392;SDS011;10857;52.228;21.026;2023-09-08T00:10:02;11.52;;;8.60;;
21392;SDS011;10857;52.228;21.026;2023-09-08T00:12:47;12.88;;;8.88;;
21392;SDS011;10857;52.228;21.026;2023-09-08T00:15:21;12.05;;;8.80;;
21392;SDS011;10857;52.228;21.026;2023-09-08T00:18:17;14.27;;;9.40;;
21392;SDS011;10857;52.228;21.026;2023-09-08T00:20:49;16.00;;;8.90;;
21392;SDS011;10857;52.228;21.026;2023-09-08T00:23:16;19.63;;;9.13;;
21392;SDS011;10857;52.228;21.026;2023-09-08T00:25:43;18.40;;;9.07;;
21392;SDS011;10857;52.228;21.026;2023-09-08T00:28:10;12.98;;;8.50;;
21392;SDS011;10857;52.228;21.026;2023-09-08T00:30:37;14.80;;;8.70;;
21392;SDS011;10857;52.228;21.026;2023-09-08T00:33:04;12.20;;;8.38;;
21392;SDS011;10857;52.228;21.026;2023-09-08T00:35:35;14.32;;;8.40;;
21392;SDS011;10857;52.228;21.026;2023-09-08T00:38:02;17.88;;;9.23;;
21392;SDS011;10857;52.228;21.026;2023-09-08T00:40:30;14.07;;;9.00;;
21392;SDS011;10857;52.228;21.026;2023-09-08T00:42:57;15.95;;;8.90;;
21392;SDS011;10857;52.228;21.026;2023-09-08T00:45:26;13.48;;;9.18;;
21392;SDS011;10857;52.228;21.026;2023-09-08T00:47:55;16.40;;;9.07;;
21392;SDS011;10857;52.228;21.026;2023-09-08T00:50:25;13.82;;;9.35;;
21392;SDS011;10857;52.228;21.026;2023-09-08T00:52:53;13.73;;;8.57;;
21392;SDS011;10857;52.228;21.026;2023-09-08T00:55:21;11.93;;;8.75;;
21392;SDS011;10857;52.228;21.026;2023-09-08T00:57:48;15.02;;;9.63;;
21392;SDS011;10857;52.228;21.026;2023-09-08T01:00:16;15.00;;;9.18;;
21392;SDS011;10857;52.228;21.026;2023-09-08T01:02:46;13.13;;;9.10;;
21392;SDS011;10857;52.228;21.026;2023-09-08T01:05:13;12.02;;;8.73;;
21392;SDS011;10857;52.228;21.026;2023-09-08T01:07:46;17.02;;;9.15;;
21392;SDS011;10857;52.228;21.026;2023-09-08T01:10:34;15.02;;;10.45;;
21392;SDS011;10857;52.228;21.026;2023-09-08T01:13:06;12.65;;;9.63;;
21392;SDS011;10857;52.228;21.026;2023-09-08T01:15:34;12.38;;;9.35;;
21392;SDS011;10857;52.228;21.026;2023-09-08T01:18:01;13.68;;;9.65;;
21392;SDS011;10857;52.228;21.026;2023-09-08T01:20:30;13.60;;;9.10;;
21392;SDS011;10857;52.228;21.026;2023-09-08T01:23:22;16.02;;;9.65;;
21392;SDS011;10857;52.228;21.026;2023-09-08T01:25:55;14.18;;;9.30;;
21392;SDS011;10857;52.228;21.026;2023-09-08T01:28:30;12.98;;;8.82;;
21392;SDS011;10857;52.228;21.026;2023-09-08T01:31:00;13.80;;;9.63;;
21392;SDS011;10857;52.228;21.026;2023-09-08T01:33:28;15.77;;;9.40;;
21392;SDS011;10857;52.228;21.026;2023-09-08T01:35:56;21.00;;;10.10;;
21392;SDS011;10857;52.228;21.026;2023-09-08T01:38:29;12.95;;;9.80;;
21392;SDS011;10857;52.228;21.026;2023-09-08T01:40:58;14.02;;;9.75;;
21392;SDS011;10857;52.228;21.026;2023-09-08T01:43:27;16.92;;;10.25;;
21392;SDS011;10857;52.228;21.026;2023-09-08T01:45:54;11.80;;;9.73;;
21392;SDS011;10857;52.228;21.026;2023-09-08T01:48:22;11.95;;;8.90;;
21392;SDS011;10857;52.228;21.026;2023-09-08T01:50:49;12.98;;;9.32;;
21392;SDS011;10857;52.228;21.026;2023-09-08T01:53:18;12.95;;;9.02;;
21392;SDS011;10857;52.228;21.026;2023-09-08T01:55:57;14.48;;;8.93;;
21392;SDS011;10857;52.228;21.026;2023-09-08T01:59:07;14.10;;;8.90;;
21392;SDS011;10857;52.228;21.026;2023-09-08T02:02:07;13.43;;;9.20;;
21392;SDS011;10857;52.228;21.026;2023-09-08T02:05:00;13.82;;;9.95;;
21392;SDS011;10857;52.228;21.026;2023-09-08T02:08:01;12.85;;;9.93;;
21392;SDS011;10857;52.228;21.026;2023-09-08T02:10:34;15.27;;;9.50;;
21392;SDS011;10857;52.228;21.026;2023-09-08T02:13:07;13.13;;;9.38;;
21392;SDS011;10857;52.228;21.026;2023-09-08T02:15:37;13.20;;;9.15;;
21392;SDS011;10857;52.228;21.026;2023-09-08T02:18:07;15.63;;;9.65;;
21392;SDS011;10857;52.228;21.026;2023-09-08T02:20:43;12.07;;;9.07;;
21392;SDS011;10857;52.228;21.026;2023-09-08T02:23:12;15.63;;;9.77;;
21392;SDS011;10857;52.228;21.026;2023-09-08T02:25:41;14.98;;;9.07;;
21392;SDS011;10857;52.228;21.026;2023-09-08T02:28:13;12.77;;;8.57;;
21392;SDS011;10857;52.228;21.026;2023-09-08T02:30:49;13.98;;;9.38;;
21392;SDS011;10857;52.228;21.026;2023-09-08T02:33:17;13.43;;;9.63;;
21392;SDS011;10857;52.228;21.026;2023-09-08T02:35:46;13.95;;;9.18;;
21392;SDS011;10857;52.228;21.026;2023-09-08T02:38:17;15.57;;;9.35;;
21392;SDS011;10857;52.228;21.026;2023-09-08T02:40:53;14.70;;;9.48;;
21392;SDS011;10857;52.228;21.026;2023-09-08T02:43:22;12.07;;;9.07;;
21392;SDS011;10857;52.228;21.026;2023-09-08T02:45:58;13.43;;;8.80;;
21392;SDS011;10857;52.228;21.026;2023-09-08T02:48:30;13.45;;;9.27;;
21392;SDS011;10857;52.228;21.026;2023-09-08T02:51:01;12.02;;;9.02;;
21392;SDS011;10857;52.228;21.026;2023-09-08T02:53:29;12.35;;;8.93;;
21392;SDS011;10857;52.228;21.026;2023-09-08T02:55:58;12.68;;;9.38;;
21392;SDS011;10857;52.228;21.026;2023-09-08T02:58:25;11.77;;;8.68;;
21392;SDS011;10857;52.228;21.026;2023-09-08T03:00:53;16.75;;;9.18;;
21392;SDS011;10857;52.228;21.026;2023-09-08T03:03:21;12.13;;;9.30;;
21392;SDS011;10857;52.228;21.026;2023-09-08T03:05:53;12.52;;;8.85;;
21392;SDS011;10857;52.228;21.026;2023-09-08T03:08:22;14.05;;;8.82;;
21392;SDS011;10857;52.228;21.026;2023-09-08T03:10:54;12.82;;;9.00;;
21392;SDS011;10857;52.228;21.026;2023-09-08T03:13:26;15.05;;;8.82;;
21392;SDS011;10857;52.228;21.026;2023-09-08T03:16:01;14.25;;;8.73;;
21392;SDS011;10857;52.228;21.026;2023-09-08T03:18:29;13.30;;;9.10;;
21392;SDS011;10857;52.228;21.026;2023-09-08T03:20:57;13.80;;;9.65;;
21392;SDS011;10857;52.228;21.026;2023-09-08T03:23:24;15.07;;;9.40;;
21392;SDS011;10857;52.228;21.026;2023-09-08T03:25:51;12.00;;;8.60;;
21392;SDS011;10857;52.228;21.026;2023-09-08T03:28:19;13.98;;;9.27;;
21392;SDS011;10857;52.228;21.026;2023-09-08T03:30:46;15.25;;;9.48;;
21392;SDS011;10857;52.228;21.026;2023-09-08T03:33:13;12.45;;;9.27;;
21392;SDS011;10857;52.228;21.026;2023-09-08T03:35:40;14.60;;;8.85;;
21392;SDS011;10857;52.228;21.026;2023-09-08T03:38:07;12.82;;;8.85;;
21392;SDS011;10857;52.228;21.026;2023-09-08T03:40:34;14.23;;;10.02;;
21392;SDS011;10857;52.228;21.026;2023-09-08T03:43:02;13.82;;;9.75;;
21392;SDS011;10857;52.228;21.026;2023-09-08T03:45:29;12.98;;;9.73;;
21392;SDS011;10857;52.228;21.026;2023-09-08T03:48:10;13.38;;;10.02;;
21392;SDS011;10857;52.228;21.026;2023-09-08T03:50:37;12.90;;;9.35;;
21392;SDS011;10857;52.228;21.026;2023-09-08T03:53:05;14.27;;;9.73;;
21392;SDS011;10857;52.228;21.026;2023-09-08T03:55:33;18.85;;;10.02;;
21392;SDS011;10857;52.228;21.026;2023-09-08T03:58:01;22.15;;;10.73;;
21392;SDS011;10857;52.228;21.026;2023-09-08T04:00:27;13.63;;;10.10;;
21392;SDS011;10857;52.228;21.026;2023-09-08T04:02:58;13.93;;;9.65;;
21392;SDS011;10857;52.228;21.026;2023-09-08T04:05:46;15.27;;;10.00;;
21392;SDS011;10857;52.228;21.026;2023-09-08T04:08:44;13.85;;;10.38;;
21392;SDS011;10857;52.228;21.026;2023-09-08T04:11:41;16.50;;;10.45;;
21392;SDS011;10857;52.228;21.026;2023-09-08T04:14:57;12.82;;;9.68;;
21392;SDS011;10857;52.228;21.026;2023-09-08T04:17:39;12.95;;;9.57;;
21392;SDS011;10857;52.228;21.026;2023-09-08T04:20:28;14.10;;;9.43;;
21392;SDS011;10857;52.228;21.026;2023-09-08T04:23:33;16.70;;;9.75;;
21392;SDS011;10857;52.228;21.026;2023-09-08T04:26:09;14.32;;;9.63;;
21392;SDS011;10857;52.228;21.026;2023-09-08T04:28:49;13.63;;;10.45;;
21392;SDS011;10857;52.228;21.026;2023-09-08T04:31:23;16.88;;;10.52;;
21392;SDS011;10857;52.228;21.026;2023-09-08T04:33:56;14.18;;;9.82;;
21392;SDS011;10857;52.228;21.026;2023-09-08T04:36:28;14.50;;;9.93;;
21392;SDS011;10857;52.228;21.026;2023-09-08T04:39:05;14.80;;;10.15;;
21392;SDS011;10857;52.228;21.026;2023-09-08T04:41:50;16.05;;;10.73;;
21392;SDS011;10857;52.228;21.026;2023-09-08T04:44:27;16.20;;;9.85;;
21392;SDS011;10857;52.228;21.026;2023-09-08T04:46:55;12.07;;;9.98;;
21392;SDS011;10857;52.228;21.026;2023-09-08T04:49:24;16.92;;;10.50;;
21392;SDS011;10857;52.228;21.026;2023-09-08T04:51:51;13.48;;;10.10;;
21392;SDS011;10857;52.228;21.026;2023-09-08T04:54:22;16.98;;;10.02;;
21392;SDS011;10857;52.228;21.026;2023-09-08T04:57:04;18.35;;;10.45;;
21392;SDS011;10857;52.228;21.026;2023-09-08T04:59:59;16.35;;;10.38;;
21392;SDS011;10857;52.228;21.026;2023-09-08T05:02:29;14.68;;;10.63;;
21392;SDS011;10857;52.228;21.026;2023-09-08T05:05:53;14.88;;;10.25;;
21392;SDS011;10857;52.228;21.026;2023-09-08T05:08:28;17.58;;;10.57;;
21392;SDS011;10857;52.228;21.026;2023-09-08T05:11:10;20.73;;;11.35;;
21392;SDS011;10857;52.228;21.026;2023-09-08T05:13:49;20.27;;;11.43;;
21392;SDS011;10857;52.228;21.026;2023-09-08T05:16:20;20.75;;;10.70;;
21392;SDS011;10857;52.228;21.026;2023-09-08T05:19:32;18.65;;;11.73;;
21392;SDS011;10857;52.228;21.026;2023-09-08T05:22:26;17.40;;;11.48;;
21392;SDS011;10857;52.228;21.026;2023-09-08T05:24:57;19.73;;;11.25;;
21392;SDS011;10857;52.228;21.026;2023-09-08T05:27:24;17.35;;;11.48;;
21392;SDS011;10857;52.228;21.026;2023-09-08T05:29:52;20.15;;;10.63;;
21392;SDS011;10857;52.228;21.026;2023-09-08T05:32:19;20.30;;;11.15;;
21392;SDS011;10857;52.228;21.026;2023-09-08T05:34:47;22.10;;;12.18;;
21392;SDS011;10857;52.228;21.026;2023-09-08T05:37:15;16.75;;;10.77;;
21392;SDS011;10857;52.228;21.026;2023-09-08T05:39:43;22.95;;;11.73;;
21392;SDS011;10857;52.228;21.026;2023-09-08T05:42:10;20.15;;;12.13;;
21392;SDS011;10857;52.228;21.026;2023-09-08T05:44:38;17.15;;;11.13;;
21392;SDS011;10857;52.228;21.026;2023-09-08T05:47:06;15.18;;;11.38;;
21392;SDS011;10857;52.228;21.026;2023-09-08T05:49:34;16.08;;;11.73;;
21392;SDS011;10857;52.228;21.026;2023-09-08T05:52:03;21.27;;;11.77;;
21392;SDS011;10857;52.228;21.026;2023-09-08T05:54:32;18.45;;;11.93;;
21392;SDS011;10857;52.228;21.026;2023-09-08T05:57:00;19.17;;;12.40;;
21392;SDS011;10857;52.228;21.026;2023-09-08T05:59:28;19.10;;;12.07;;
21392;SDS011;10857;52.228;21.026;2023-09-08T06:01:59;22.75;;;12.10;;
21392;SDS011;10857;52.228;21.026;2023-09-08T06:04:27;17.05;;;11.65;;
21392;SDS011;10857;52.228;21.026;2023-09-08T06:06:55;21.05;;;11.00;;
21392;SDS011;10857;52.228;21.026;2023-09-08T06:09:24;17.42;;;11.70;;
21392;SDS011;10857;52.228;21.026;2023-09-08T06:11:55;23.92;;;11.98;;
21392;SDS011;10857;52.228;21.026;2023-09-08T06:14:23;18.25;;;11.68;;
21392;SDS011;10857;52.228;21.026;2023-09-08T06:16:50;20.80;;;12.80;;
21392;SDS011;10857;52.228;21.026;2023-09-08T06:19:18;19.77;;;12.20;;
21392;SDS011;10857;52.228;21.026;2023-09-08T06:21:47;20.20;;;12.27;;
21392;SDS011;10857;52.228;21.026;2023-09-08T06:24:14;19.20;;;12.07;;
21392;SDS011;10857;52.228;21.026;2023-09-08T06:26:41;18.75;;;12.00;;
21392;SDS011;10857;52.228;21.026;2023-09-08T06:29:09;14.32;;;11.30;;
21392;SDS011;10857;52.228;21.026;2023-09-08T06:31:38;18.35;;;11.60;;
21392;SDS011;10857;52.228;21.026;2023-09-08T06:34:07;18.10;;;12.32;;
21392;SDS011;10857;52.228;21.026;2023-09-08T06:36:39;17.60;;;11.82;;
21392;SDS011;10857;52.228;21.026;2023-09-08T06:39:07;18.45;;;12.13;;
21392;SDS011;10857;52.228;21.026;2023-09-08T06:41:35;17.55;;;11.70;;
21392;SDS011;10857;52.228;21.026;2023-09-08T06:44:04;18.30;;;12.07;;
21392;SDS011;10857;52.228;21.026;2023-09-08T06:46:40;22.38;;;12.18;;
21392;SDS011;10857;52.228;21.026;2023-09-08T06:49:07;19.42;;;11.98;;
21392;SDS011;10857;52.228;21.026;2023-09-08T06:51:35;21.33;;;12.02;;
21392;SDS011;10857;52.228;21.026;2023-09-08T06:54:04;21.25;;;12.18;;
21392;SDS011;10857;52.228;21.026;2023-09-08T06:56:37;20.42;;;12.23;;
21392;SDS011;10857;52.228;21.026;2023-09-08T06:59:09;21.88;;;11.43;;
21392;SDS011;10857;52.228;21.026;2023-09-08T07:01:41;18.98;;;12.20;;
21392;SDS011;10857;52.228;21.026;2023-09-08T07:04:10;22.10;;;12.55;;
21392;SDS011;10857;52.228;21.026;2023-09-08T07:06:43;19.50;;;11.80;;
21392;SDS011;10857;52.228;21.026;2023-09-08T07:09:13;23.05;;;12.15;;
21392;SDS011;10857;52.228;21.026;2023-09-08T07:11:43;22.75;;;12.05;;
21392;SDS011;10857;52.228;21.026;2023-09-08T07:14:10;19.13;;;12.27;;
21392;SDS011;10857;52.228;21.026;2023-09-08T07:16:39;22.40;;;11.75;;
21392;SDS011;10857;52.228;21.026;2023-09-08T07:19:08;21.52;;;11.77;;
21392;SDS011;10857;52.228;21.026;2023-09-08T07:21:35;16.63;;;11.75;;
21392;SDS011;10857;52.228;21.026;2023-09-08T07:24:03;17.35;;;11.52;;
21392;SDS011;10857;52.228;21.026;2023-09-08T07:26:31;19.55;;;12.20;;
21392;SDS011;10857;52.228;21.026;2023-09-08T07:28:59;20.88;;;12.35;;
21392;SDS011;10857;52.228;21.026;2023-09-08T07:31:27;16.30;;;12.13;;
21392;SDS011;10857;52.228;21.026;2023-09-08T07:33:59;17.02;;;11.52;;
21392;SDS011;10857;52.228;21.026;2023-09-08T07:36:36;16.48;;;11.55;;
21392;SDS011;10857;52.228;21.026;2023-09-08T07:39:05;19.25;;;11.88;;
21392;SDS011;10857;52.228;21.026;2023-09-08T07:41:35;16.52;;;11.73;;
21392;SDS011;10857;52.228;21.026;2023-09-08T07:44:03;15.13;;;12.30;;
21392;SDS011;10857;52.228;21.026;2023-09-08T07:46:32;18.70;;;13.05;;
21392;SDS011;10857;52.228;21.026;2023-09-08T07:49:01;21.73;;;11.93;;
21392;SDS011;10857;52.228;21.026;2023-09-08T07:51:45;17.10;;;10.90;;
21392;SDS011;10857;52.228;21.026;2023-09-08T07:54:14;18.83;;;11.27;;
21392;SDS011;10857;52.228;21.026;2023-09-08T07:56:53;18.08;;;11.25;;
21392;SDS011;10857;52.228;21.026;2023-09-08T07:59:46;20.95;;;11.02;;
21392;SDS011;10857;52.228;21.026;2023-09-08T08:02:17;19.33;;;10.48;;
21392;SDS011;10857;52.228;21.026;2023-09-08T08:04:48;18.80;;;10.55;;
21392;SDS011;10857;52.228;21.026;2023-09-08T08:07:27;21.23;;;10.68;;
21392;SDS011;10857;52.228;21.026;2023-09-08T08:10:05;17.60;;;11.27;;
21392;SDS011;10857;52.228;21.026;2023-09-08T08:12:38;17.52;;;11.13;;
21392;SDS011;10857;52.228;21.026;2023-09-08T08:15:36;16.17;;;10.55;;
21392;SDS011;10857;52.228;21.026;2023-09-08T08:18:10;14.90;;;9.93;;
21392;SDS011;10857;52.228;21.026;2023-09-08T08:20:41;17.00;;;10.82;;
21392;SDS011;10857;52.228;21.026;2023-09-08T08:23:17;18.40;;;10.30;;
21392;SDS011;10857;52.228;21.026;2023-09-08T08:25:52;17.40;;;9.75;;
21392;SDS011;10857;52.228;21.026;2023-09-08T08:28:20;12.60;;;9.68;;
21392;SDS011;10857;52.228;21.026;2023-09-08T08:30:50;14.88;;;9.60;;
21392;SDS011;10857;52.228;21.026;2023-09-08T08:33:21;22.02;;;10.40;;
21392;SDS011;10857;52.228;21.026;2023-09-08T08:36:18;15.88;;;10.25;;
21392;SDS011;10857;52.228;21.026;2023-09-08T08:38:53;15.63;;;10.35;;
21392;SDS011;10857;52.228;21.026;2023-09-08T08:41:21;18.65;;;10.60;;
21392;SDS011;10857;52.228;21.026;2023-09-08T08:43:58;15.63;;;10.20;;
21392;SDS011;10857;52.228;21.026;2023-09-08T08:46:28;18.20;;;9.95;;
21392;SDS011;10857;52.228;21.026;2023-09-08T08:49:00;19.05;;;10.68;;
21392;SDS011;10857;52.228;21.026;2023-09-08T08:51:32;17.50;;;10.23;;
21392;SDS011;10857;52.228;21.026;2023-09-08T08:54:01;17.75;;;10.57;;
21392;SDS011;10857;52.228;21.026;2023-09-08T08:56:37;18.48;;;10.23;;
21392;SDS011;10857;52.228;21.026;2023-09-08T08:59:10;21.02;;;10.45;;
21392;SDS011;10857;52.228;21.026;2023-09-08T09:01:37;17.13;;;10.43;;
21392;SDS011;10857;52.228;21.026;2023-09-08T09:04:07;17.30;;;11.00;;
21392;SDS011;10857;52.228;21.026;2023-09-08T09:06:36;18.55;;;9.98;;
21392;SDS011;10857;52.228;21.026;2023-09-08T09:09:03;20.00;;;10.90;;
21392;SDS011;10857;52.228;21.026;2023-09-08T09:11:31;26.98;;;16.02;;
21392;SDS011;10857;52.228;21.026;2023-09-08T09:14:03;19.08;;;10.57;;
21392;SDS011;10857;52.228;21.026;2023-09-08T09:16:38;20.55;;;11.43;;
21392;SDS011;10857;52.228;21.026;2023-09-08T09:19:17;27.42;;;12.32;;
21392;SDS011;10857;52.228;21.026;2023-09-08T09:22:08;20.67;;;11.88;;
21392;SDS011;10857;52.228;21.026;2023-09-08T09:24:41;19.67;;;11.55;;
21392;SDS011;10857;52.228;21.026;2023-09-08T09:27:11;18.92;;;10.90;;
21392;SDS011;10857;52.228;21.026;2023-09-08T09:29:48;17.40;;;10.45;;
21392;SDS011;10857;52.228;21.026;2023-09-08T09:32:22;16.17;;;10.10;;
21392;SDS011;10857;52.228;21.026;2023-09-08T09:34:53;17.55;;;9.80;;
21392;SDS011;10857;52.228;21.026;2023-09-08T09:37:21;18.50;;;10.23;;
21392;SDS011;10857;52.228;21.026;2023-09-08T09:39:53;16.48;;;9.38;;
21392;SDS011;10857;52.228;21.026;2023-09-08T09:42:32;15.25;;;9.98;;
21392;SDS011;10857;52.228;21.026;2023-09-08T09:45:00;15.68;;;9.73;;
21392;SDS011;10857;52.228;21.026;2023-09-08T09:47:28;13.10;;;9.25;;
21392;SDS011;10857;52.228;21.026;2023-09-08T09:49:57;18.38;;;9.27;;
21392;SDS011;10857;52.228;21.026;2023-09-08T09:52:27;15.07;;;8.93;;
21392;SDS011;10857;52.228;21.026;2023-09-08T09:55:11;12.77;;;8.30;;
21392;SDS011;10857;52.228;21.026;2023-09-08T09:57:39;12.32;;;7.85;;
21392;SDS011;10857;52.228;21.026;2023-09-08T10:00:09;17.13;;;8.65;;
21392;SDS011;10857;52.228;21.026;2023-09-08T10:02:39;13.60;;;8.75;;
21392;SDS011;10857;52.228;21.026;2023-09-08T10:05:12;12.45;;;8.40;;
21392;SDS011;10857;52.228;21.026;2023-09-08T10:07:46;13.60;;;8.55;;
21392;SDS011;10857;52.228;21.026;2023-09-08T10:10:15;10.07;;;8.40;;
21392;SDS011;10857;52.228;21.026;2023-09-08T10:12:46;15.32;;;9.00;;
21392;SDS011;10857;52.228;21.026;2023-09-08T10:15:22;14.05;;;8.82;;
21392;SDS011;10857;52.228;21.026;2023-09-08T10:17:52;13.02;;;8.77;;
21392;SDS011;10857;52.228;21.026;2023-09-08T10:20:25;10.07;;;8.00;;
21392;SDS011;10857;52.228;21.026;2023-09-08T10:22:54;12.45;;;8.52;;
21392;SDS011;10857;52.228;21.026;2023-09-08T10:25:28;11.45;;;7.80;;
21392;SDS011;10857;52.228;21.026;2023-09-08T10:28:00;15.93;;;7.97;;
21392;SDS011;10857;52.228;21.026;2023-09-08T10:30:27;9.70;;;8.13;;
21392;SDS011;10857;52.228;21.026;2023-09-08T10:32:55;10.15;;;7.40;;
21392;SDS011;10857;52.228;21.026;2023-09-08T10:35:22;12.88;;;8.20;;
21392;SDS011;10857;52.228;21.026;2023-09-08T10:37:52;10.15;;;8.13;;
21392;SDS011;10857;52.228;21.026;2023-09-08T10:40:47;12.55;;;8.10;;
21392;SDS011;10857;52.228;21.026;2023-09-08T10:43:17;13.07;;;8.20;;
21392;SDS011;10857;52.228;21.026;2023-09-08T10:45:48;14.57;;;8.65;;
21392;SDS011;10857;52.228;21.026;2023-09-08T10:48:17;11.40;;;8.68;;
21392;SDS011;10857;52.228;21.026;2023-09-08T10:50:46;12.05;;;8.93;;
21392;SDS011;10857;52.228;21.026;2023-09-08T10:53:17;10.90;;;9.02;;
21392;SDS011;10857;52.228;21.026;2023-09-08T10:55:46;12.35;;;9.32;;
21392;SDS011;10857;52.228;21.026;2023-09-08T10:58:38;15.40;;;9.40;;
21392;SDS011;10857;52.228;21.026;2023-09-08T11:01:07;11.43;;;9.35;;
21392;SDS011;10857;52.228;21.026;2023-09-08T11:06:06;11.65;;;9.25;;
21392;SDS011;10857;52.228;21.026;2023-09-08T11:08:37;13.30;;;9.68;;
21392;SDS011;10857;52.228;21.026;2023-09-08T11:11:13;13.70;;;9.50;;
21392;SDS011;10857;52.228;21.026;2023-09-08T11:13:40;12.45;;;8.98;;
21392;SDS011;10857;52.228;21.026;2023-09-08T11:16:07;13.95;;;9.93;;
21392;SDS011;10857;52.228;21.026;2023-09-08T11:18:35;12.90;;;9.55;;
21392;SDS011;10857;52.228;21.026;2023-09-08T11:21:06;11.57;;;8.60;;
21392;SDS011;10857;52.228;21.026;2023-09-08T11:23:35;17.45;;;9.80;;
21392;SDS011;10857;52.228;21.026;2023-09-08T11:26:03;13.10;;;9.75;;
21392;SDS011;10857;52.228;21.026;2023-09-08T11:28:51;13.00;;;9.65;;
21392;SDS011;10857;52.228;21.026;2023-09-08T11:31:30;14.68;;;10.15;;
21392;SDS011;10857;52.228;21.026;2023-09-08T11:33:58;15.18;;;9.77;;
21392;SDS011;10857;52.228;21.026;2023-09-08T11:36:26;11.80;;;9.68;;
21392;SDS011;10857;52.228;21.026;2023-09-08T11:38:56;14.20;;;9.90;;
21392;SDS011;10857;52.228;21.026;2023-09-08T11:41:24;15.85;;;10.20;;
21392;SDS011;10857;52.228;21.026;2023-09-08T11:43:51;12.48;;;10.00;;
21392;SDS011;10857;52.228;21.026;2023-09-08T11:46:21;14.55;;;9.70;;
21392;SDS011;10857;52.228;21.026;2023-09-08T11:48:48;11.77;;;9.93;;
21392;SDS011;10857;52.228;21.026;2023-09-08T11:51:15;14.40;;;10.00;;
21392;SDS011;10857;52.228;21.026;2023-09-08T11:53:42;14.73;;;9.98;;
21392;SDS011;10857;52.228;21.026;2023-09-08T11:56:10;16.60;;;9.98;;
21392;SDS011;10857;52.228;21.026;2023-09-08T11:58:39;14.93;;;10.90;;
21392;SDS011;10857;52.228;21.026;2023-09-08T12:01:09;14.65;;;10.32;;
21392;SDS011;10857;52.228;21.026;2023-09-08T12:03:50;13.15;;;9.88;;
21392;SDS011;10857;52.228;21.026;2023-09-08T12:06:31;15.80;;;9.98;;
21392;SDS011;10857;52.228;21.026;2023-09-08T12:09:01;12.35;;;10.32;;
21392;SDS011;10857;52.228;21.026;2023-09-08T12:11:33;12.23;;;9.85;;
21392;SDS011;10857;52.228;21.026;2023-09-08T12:14:12;13.27;;;10.05;;
21392;SDS011;10857;52.228;21.026;2023-09-08T12:16:40;12.38;;;9.65;;
21392;SDS011;10857;52.228;21.026;2023-09-08T12:19:08;14.23;;;9.85;;
21392;SDS011;10857;52.228;21.026;2023-09-08T12:21:57;11.48;;;9.02;;
21392;SDS011;10857;52.228;21.026;2023-09-08T12:27:13;13.32;;;10.07;;
21392;SDS011;10857;52.228;21.026;2023-09-08T12:29:51;11.75;;;9.88;;
21392;SDS011;10857;52.228;21.026;2023-09-08T12:32:31;13.15;;;9.73;;
21392;SDS011;10857;52.228;21.026;2023-09-08T12:34:59;12.98;;;9.35;;
21392;SDS011;10857;52.228;21.026;2023-09-08T12:37:32;15.88;;;9.50;;
21392;SDS011;10857;52.228;21.026;2023-09-08T12:40:04;11.25;;;9.63;;
21392;SDS011;10857;52.228;21.026;2023-09-08T12:42:34;14.38;;;9.20;;
21392;SDS011;10857;52.228;21.026;2023-09-08T12:45:18;13.35;;;9.85;;
21392;SDS011;10857;52.228;21.026;2023-09-08T12:47:54;10.30;;;9.20;;
21392;SDS011;10857;52.228;21.026;2023-09-08T12:50:27;12.38;;;9.20;;
21392;SDS011;10857;52.228;21.026;2023-09-08T12:52:54;13.10;;;10.35;;
21392;SDS011;10857;52.228;21.026;2023-09-08T12:55:21;16.02;;;9.95;;
21392;SDS011;10857;52.228;21.026;2023-09-08T12:57:49;16.13;;;9.82;;
21392;SDS011;10857;52.228;21.026;2023-09-08T13:00:22;13.90;;;10.15;;
21392;SDS011;10857;52.228;21.026;2023-09-08T13:02:59;17.90;;;9.88;;
21392;SDS011;10857;52.228;21.026;2023-09-08T13:05:32;11.45;;;10.15;;
21392;SDS011;10857;52.228;21.026;2023-09-08T13:08:02;16.48;;;9.40;;
21392;SDS011;10857;52.228;21.026;2023-09-08T13:10:30;12.88;;;9.45;;
21392;SDS011;10857;52.228;21.026;2023-09-08T13:12:57;14.45;;;9.70;;
21392;SDS011;10857;52.228;21.026;2023-09-08T13:15:25;15.48;;;9.85;;
21392;SDS011;10857;52.228;21.026;2023-09-08T13:17:53;12.45;;;9.45;;
21392;SDS011;10857;52.228;21.026;2023-09-08T13:20:21;13.48;;;9.75;;
21392;SDS011;10857;52.228;21.026;2023-09-08T13:22:51;17.20;;;9.05;;
21392;SDS011;10857;52.228;21.026;2023-09-08T13:25:18;13.93;;;9.27;;
21392;SDS011;10857;52.228;21.026;2023-09-08T13:27:48;10.18;;;8.80;;
21392;SDS011;10857;52.228;21.026;2023-09-08T13:30:15;13.63;;;9.10;;
21392;SDS011;10857;52.228;21.026;2023-09-08T13:32:43;11.75;;;10.02;;
21392;SDS011;10857;52.228;21.026;2023-09-08T13:35:13;11.85;;;8.82;;
21392;SDS011;10857;52.228;21.026;2023-09-08T13:37:43;11.48;;;9.23;;
21392;SDS011;10857;52.228;21.026;2023-09-08T13:40:12;13.18;;;9.38;;
21392;SDS011;10857;52.228;21.026;2023-09-08T13:42:41;14.00;;;9.35;;
21392;SDS011;10857;52.228;21.026;2023-09-08T13:45:08;10.40;;;9.25;;
21392;SDS011;10857;52.228;21.026;2023-09-08T13:47:36;15.80;;;10.02;;
21392;SDS011;10857;52.228;21.026;2023-09-08T13:50:05;12.02;;;8.95;;
21392;SDS011;10857;52.228;21.026;2023-09-08T13:52:35;12.75;;;9.25;;
21392;SDS011;10857;52.228;21.026;2023-09-08T13:55:07;11.85;;;8.88;;
21392;SDS011;10857;52.228;21.026;2023-09-08T13:57:38;10.18;;;9.13;;
21392;SDS011;10857;52.228;21.026;2023-09-08T14:00:07;15.02;;;9.30;;
21392;SDS011;10857;52.228;21.026;2023-09-08T14:02:43;15.65;;;9.48;;
21392;SDS011;10857;52.228;21.026;2023-09-08T14:05:17;18.98;;;10.50;;
21392;SDS011;10857;52.228;21.026;2023-09-08T14:07:53;13.43;;;9.80;;
21392;SDS011;10857;52.228;21.026;2023-09-08T14:10:31;12.63;;;9.10;;
21392;SDS011;10857;52.228;21.026;2023-09-08T14:13:10;13.10;;;8.82;;
21392;SDS011;10857;52.228;21.026;2023-09-08T14:15:40;12.43;;;9.05;;
21392;SDS011;10857;52.228;21.026;2023-09-08T14:18:07;11.52;;;8.77;;
21392;SDS011;10857;52.228;21.026;2023-09-08T14:20:37;13.75;;;9.02;;
21392;SDS011;10857;52.228;21.026;2023-09-08T14:23:04;12.55;;;9.07;;
21392;SDS011;10857;52.228;21.026;2023-09-08T14:25:35;11.32;;;9.40;;
21392;SDS011;10857;52.228;21.026;2023-09-08T14:28:06;13.75;;;8.98;;
21392;SDS011;10857;52.228;21.026;2023-09-08T14:30:33;12.93;;;8.68;;
21392;SDS011;10857;52.228;21.026;2023-09-08T14:33:02;9.80;;;8.07;;
21392;SDS011;10857;52.228;21.026;2023-09-08T14:35:32;10.57;;;8.98;;
21392;SDS011;10857;52.228;21.026;2023-09-08T14:38:02;10.25;;;8.88;;
21392;SDS011;10857;52.228;21.026;2023-09-08T14:40:30;11.90;;;8.27;;
21392;SDS011;10857;52.228;21.026;2023-09-08T14:42:58;14.80;;;8.90;;
21392;SDS011;10857;52.228;21.026;2023-09-08T14:45:27;10.15;;;9.02;;
21392;SDS011;10857;52.228;21.026;2023-09-08T14:47:56;12.05;;;8.75;;
21392;SDS011;10857;52.228;21.026;2023-09-08T14:50:30;13.93;;;8.65;;